Antlers Park, Minnesota
Current Conditions -  °F | °C
As of 9:44 PM on Monday 22 Dec 2014 (Local Time) from KLVN Reporting Station
Drizzle Drizzle  
Wind Chill: 26°   Ceiling: 900
Heat Index: 34°   Visibility: 4mi
Dew Point: 34°   Wind: 10mph
Humidity: 100%   Direction: 70°ENE
Pressure: 29.6"   Gusts: NA
Location:  44.6349°N, 93.283°W
Report Text: KLVN 230344Z AUTO 07009KT 4SM -DZ BKN009 01/01 A2960 RMK AO2
Loading
Personal Weather Stations






























Interactive Weather Map New forecast layout! Learn more

10-Day Weather Forecast

Advertisements
Track Severe Weather on mobile